Portada
METAR-TAF:

METAR-TAF

Aeropuertos :

Cognac, Francia

latitud: 45-40N, longitud: 000-19W, altitud: 30 m

Observación

El informe se hizo hace 28 minutos, a las 05:00 UTC
Viento 4 kt del este
Temperatura 12°C
Humedad 88%
Presión 1011 hPa
Visibilidad 10 km o más
sin nubes por debajo de 1500 m y sin presencia de cumulonimbus.

METAR: LFBG 210500Z AUTO 08004KT CAVOK 12/10 Q1011

Hora: 07:28 (05:28 UTC)


TAF: falta

Observaciones y pronósticos meteorológicos de más de 4000 aeropuertos (mensajes METAR y TAF).

Los puntos amarillos y rojos representan las estaciones disponibles.

Ponga el ratón en el punto deseado para ver el nombre de la estación.

Haga clic para ver las observaciones y los pronósticos meteorológicos.

Para cambiar el mapa : haga clic en los botones verdes con una cruz de color negro para hacer un zoom, en el botón verde con un guión para alejar o en las flechas verdes para mapas adyacentes.


METAR-TAF: